This is the latest recevied weather packets stored in our database for station/object KC2WGU. If no packets are shown the sender has not sent any weather packets the latest 10 day(s).
| Time | Temp. | Humidity | Pressure | Rain* | Wind** | Luminosity | Snow |
|---|---|---|---|---|---|---|---|
| 1777884621 | 8.33° C | 64% | 1007 hPa | 0 mm | - | 0 W/m² | - |
| 1777884021 | 8.33° C | 66% | 1006.9 hPa | 0 mm | - | 0 W/m² | - |
| 1777883421 | 8.33° C | 67% | 1007 hPa | 0 mm | - | 0 W/m² | - |
| 1777882823 | 8.33° C | 68% | 1007 hPa | 0 mm | - | 0 W/m² | - |
| 1777882221 | 8.33° C | 71% | 1007.1 hPa | 0 mm | - | 0 W/m² | - |
| 1777881622 | 7.78° C | 78% | 1007.1 hPa | 0 mm | - | 0 W/m² | - |
| 1777881021 | 6.11° C | 88% | 1007.1 hPa | 0 mm | - | 0 W/m² | - |
| 1777880421 | 5° C | 90% | 1007.1 hPa | 0 mm | - | 0 W/m² | - |
| 1777879822 | 5° C | 89% | 1007.2 hPa | 0 mm | - | 0 W/m² | - |
| 1777879221 | 5.56° C | 89% | 1007.2 hPa | 0 mm | - | 0 W/m² | - |
| 1777878621 | 5.56° C | 89% | 1007.2 hPa | 0 mm | - | 0 W/m² | - |
| 1777878022 | 6.11° C | 88% | 1007.1 hPa | 0 mm | - | 0 W/m² | - |
| 1777877421 | 6.11° C | 88% | 1007.1 hPa | 0 mm | - | 0 W/m² | - |
| 1777876822 | 6.67° C | 88% | 1007.1 hPa | 0 mm | - | 0 W/m² | - |
| 1777876222 | 6.11° C | 91% | 1007.1 hPa | 0 mm | - | 0 W/m² | - |
| 1777875622 | 6.11° C | 91% | 1007.1 hPa | 0 mm | - | 0 W/m² | - |
| 1777875022 | 6.11° C | 90% | 1007.1 hPa | 0 mm | - | 0 W/m² | - |
| 1777874426 | 6.11° C | 90% | 1007.2 hPa | 0 mm | - | 0 W/m² | - |
| 1777873822 | 6.11° C | 89% | 1007.4 hPa | 0 mm | - | 0 W/m² | - |
| 1777873221 | 6.11° C | 88% | 1007.5 hPa | 0 mm | - | 0 W/m² | - |
| 1777872621 | 6.67° C | 88% | 1007.5 hPa | 0 mm | - | 0 W/m² | - |
| 1777872021 | 6.67° C | 87% | 1007.5 hPa | 0 mm | - | 0 W/m² | - |
| 1777871421 | 6.67° C | 87% | 1007.7 hPa | 0 mm | - | 0 W/m² | - |
| 1777870821 | 6.67° C | 86% | 1007.7 hPa | 0 mm | - | 0 W/m² | - |
| 1777870221 | 6.67° C | 86% | 1007.7 hPa | 0 mm | - | 0 W/m² | - |
* Rain latest hour (hover to see other rain measurements)
** Current wind speed in m/s (hover to see current wind gust speed)